Time;durP1;ratioP1;P1;durP2;ratioP2;P2;SDS_P1;SDS_P2;PMS_P1;PMS_P2;Temp;Humidity;BMP_temperature;BMP_pressure;BME280_temperature;BME280_humidity;BME280_pressure;Samples;Min_cycle;Max_cycle;Signal;HPM_P1;HPM_P2
2022/04/28 00:00:14;;;;;;;1.85;1.20;;;;;;;13.84;70.14;94589.38;5033126;28;20203;-78
2022/04/28 00:02:41;;;;;;;1.33;0.90;;;;;;;13.85;69.97;94586.31;5033287;28;20208;-75
2022/04/28 00:05:10;;;;;;;1.27;0.95;;;;;;;13.83;69.99;94579.63;5045974;28;20231;-75
2022/04/28 00:07:39;;;;;;;2.53;2.05;;;;;;;13.83;70.12;94587.81;5033112;28;20255;-78
2022/04/28 00:10:07;;;;;;;2.67;1.67;;;;;;;13.81;70.31;94584.63;5033760;28;20227;-77
2022/04/28 00:12:35;;;;;;;0.82;0.82;;;;;;;13.78;70.32;94585.34;5032092;28;20590;-76
2022/04/28 00:15:02;;;;;;;6.40;1.42;;;;;;;13.86;70.00;94593.34;5032571;28;20204;-74
2022/04/28 00:17:29;;;;;;;7.65;1.40;;;;;;;13.82;70.43;94591.66;5033156;28;20200;-76
2022/04/28 00:19:56;;;;;;;2.08;1.50;;;;;;;13.73;71.13;94594.56;5032907;28;20218;-78
2022/04/28 00:22:24;;;;;;;1.40;1.02;;;;;;;13.66;71.47;94599.81;5032398;28;20232;-78
2022/04/28 00:24:52;;;;;;;0.80;0.80;;;;;;;13.66;71.47;94599.03;5043174;28;20247;-78
2022/04/28 00:27:19;;;;;;;2.58;1.05;;;;;;;13.67;71.23;94600.59;5032198;28;20725;-78
2022/04/28 00:29:46;;;;;;;3.78;1.35;;;;;;;13.64;71.26;94595.88;5032720;28;20212;-77
2022/04/28 00:32:13;;;;;;;1.33;0.95;;;;;;;13.64;71.52;94595.88;5032569;28;20273;-75
2022/04/28 00:34:41;;;;;;;3.10;2.15;;;;;;;13.60;71.98;94600.41;5032652;28;20200;-76
2022/04/28 00:37:09;;;;;;;1.50;1.38;;;;;;;13.46;72.67;94600.81;5032365;28;20207;-76
2022/04/28 00:39:37;;;;;;;1.20;1.10;;;;;;;13.41;72.91;94610.00;5032284;28;20204;-77
2022/04/28 00:42:10;;;;;;;1.40;1.27;;;;;;;13.36;73.53;94607.53;5031939;28;20274;-76
2022/04/28 00:44:38;;;;;;;3.55;2.35;;;;;;;13.27;73.86;94606.88;5031673;28;20243;-77
2022/04/28 00:47:06;;;;;;;5.78;2.78;;;;;;;13.23;73.90;94611.44;5032302;28;20216;-76
2022/04/28 00:52:18;;;;;;;2.25;1.67;;;;;;;13.18;73.74;94608.16;5032332;28;20191;-77
2022/04/28 00:54:46;;;;;;;1.55;1.27;;;;;;;13.15;74.52;94613.13;5032093;28;20208;-76
2022/04/28 00:57:15;;;;;;;1.23;1.08;;;;;;;13.06;75.17;94614.38;5032035;28;20225;-76
2022/04/28 00:59:42;;;;;;;3.22;1.25;;;;;;;12.96;75.35;94620.31;5019593;28;20204;-77
2022/04/28 01:02:11;;;;;;;1.67;1.50;;;;;;;12.90;75.79;94616.22;5032123;28;20286;-76
2022/04/28 01:04:38;;;;;;;2.00;1.52;;;;;;;12.95;75.64;94618.72;5031875;28;20777;-77
2022/04/28 01:07:05;;;;;;;2.20;1.83;;;;;;;12.89;75.80;94620.06;5032415;28;20207;-77
2022/04/28 01:09:36;;;;;;;4.20;1.40;;;;;;;12.61;77.09;94620.78;5032023;28;20702;-77
2022/04/28 01:12:06;;;;;;;3.35;1.52;;;;;;;12.43;77.99;94633.00;5031979;28;20204;-75
2022/04/28 01:14:35;;;;;;;2.60;1.92;;;;;;;12.39;78.08;94629.38;5030951;28;20253;-76
2022/04/28 01:17:02;;;;;;;4.03;2.08;;;;;;;12.32;78.43;94623.69;5035399;28;20200;-76
2022/04/28 01:19:29;;;;;;;2.83;1.33;;;;;;;12.37;78.46;94626.19;5041339;28;20216;-77
2022/04/28 01:21:58;;;;;;;1.85;1.58;;;;;;;12.31;78.75;94627.53;5031915;28;20232;-76
2022/04/28 01:24:25;;;;;;;10.15;2.58;;;;;;;12.25;78.98;94618.03;5038352;28;20302;-76
2022/04/28 01:26:55;;;;;;;1.63;1.48;;;;;;;12.25;79.19;94631.63;5033772;28;20200;-76
2022/04/28 01:29:22;;;;;;;2.17;1.98;;;;;;;12.24;79.42;94633.56;5031892;28;20196;-75
2022/04/28 01:31:50;;;;;;;2.75;1.73;;;;;;;12.31;79.49;94632.97;5031356;28;20214;-77
2022/04/28 01:34:17;;;;;;;4.90;1.50;;;;;;;12.31;79.33;94633.78;5031460;28;20694;-77
2022/04/28 01:36:44;;;;;;;6.10;1.77;;;;;;;12.38;79.55;94642.16;5031529;28;20208;-77
2022/04/28 01:39:12;;;;;;;1.77;1.52;;;;;;;12.42;79.41;94639.56;5031593;28;20562;-76
2022/04/28 01:41:39;;;;;;;2.30;1.67;;;;;;;12.43;79.46;94644.69;5031519;28;20243;-76
2022/04/28 01:44:07;;;;;;;1.63;1.23;;;;;;;12.52;79.35;94644.56;5030611;28;20228;-75
2022/04/28 01:46:34;;;;;;;5.40;2.20;;;;;;;12.52;79.34;94639.13;5030931;28;20657;-75
2022/04/28 01:49:00;;;;;;;6.30;1.80;;;;;;;12.49;79.20;94639.78;5031300;28;20207;-74
2022/04/28 01:57:04;;;;;;;1.45;1.35;;;;;;;12.64;78.92;94655.44;5020380;28;20223;-76
2022/04/28 01:59:30;;;;;;;1.80;1.52;;;;;;;12.63;79.01;94651.13;5031363;28;20200;-76
2022/04/28 02:01:57;;;;;;;2.75;1.90;;;;;;;12.62;78.96;94654.19;5030412;28;20228;-75
2022/04/28 02:04:24;;;;;;;2.53;1.95;;;;;;;12.60;79.31;94645.56;5017297;28;20216;-75
2022/04/28 02:06:51;;;;;;;1.90;1.58;;;;;;;12.62;79.32;94654.97;5031305;28;20211;-77
2022/04/28 02:09:19;;;;;;;2.75;2.17;;;;;;;12.65;78.87;94654.28;5018259;28;20216;-77
2022/04/28 02:11:46;;;;;;;1.52;1.35;;;;;;;12.66;79.19;94655.09;5031569;28;20201;-75
2022/04/28 02:14:13;;;;;;;2.22;1.70;;;;;;;12.65;79.31;94654.28;5031068;28;20207;-74
2022/04/28 02:16:40;;;;;;;4.93;1.45;;;;;;;12.69;79.32;94655.22;5030318;28;20204;-74
2022/04/28 02:19:07;;;;;;;2.72;1.73;;;;;;;12.70;79.08;94662.22;5031240;28;20200;-76
2022/04/28 02:21:33;;;;;;;1.80;1.60;;;;;;;12.68;79.22;94660.97;5030601;28;20224;-76
2022/04/28 02:24:00;;;;;;;4.57;3.55;;;;;;;12.64;79.38;94655.44;5034795;28;20678;-76
2022/04/28 02:26:29;;;;;;;1.73;1.63;;;;;;;12.69;79.38;94657.94;5036632;28;20219;-75
2022/04/28 02:28:55;;;;;;;6.40;2.58;;;;;;;12.71;79.07;94663.03;5030862;28;20204;-71
2022/04/28 02:31:22;;;;;;;2.65;1.55;;;;;;;12.65;79.11;94670.59;5031314;28;20212;-76
2022/04/28 02:33:49;;;;;;;3.47;2.00;;;;;;;12.67;78.96;94673.78;5030589;28;20208;-77
2022/04/28 02:36:16;;;;;;;2.63;2.30;;;;;;;12.62;78.94;94665.03;5029828;28;20196;-77
2022/04/28 02:38:43;;;;;;;3.30;0.93;;;;;;;12.62;79.05;94663.13;5034304;28;20197;-76
2022/04/28 02:41:10;;;;;;;4.35;1.98;;;;;;;12.66;78.97;94672.19;5033889;28;20203;-76
2022/04/28 02:43:38;;;;;;;1.90;1.70;;;;;;;12.71;78.55;94665.75;5033640;28;20228;-77
2022/04/28 02:46:05;;;;;;;2.00;1.55;;;;;;;12.67;78.67;94668.34;5033676;28;20606;-76
2022/04/28 02:48:32;;;;;;;6.68;1.70;;;;;;;12.70;78.62;94673.09;5033037;28;20196;-77
2022/04/28 02:50:59;;;;;;;1.52;1.15;;;;;;;12.67;78.88;94673.78;5033452;28;20208;-77
2022/04/28 02:53:25;;;;;;;2.50;1.40;;;;;;;12.67;78.68;94668.34;5033125;28;20219;-77
2022/04/28 02:55:53;;;;;;;1.92;1.45;;;;;;;12.73;78.69;94677.84;5033264;28;20303;-77
2022/04/28 02:58:19;;;;;;;1.45;1.30;;;;;;;12.72;78.77;94676.25;5033130;28;20204;-77
2022/04/28 03:00:48;;;;;;;1.65;1.38;;;;;;;12.70;78.76;94675.81;5033799;28;20197;-76
2022/04/28 03:03:15;;;;;;;2.75;1.70;;;;;;;12.71;78.89;94671.94;5034050;28;20236;-76
2022/04/28 03:11:10;;;;;;;1.13;1.02;;;;;;;12.78;78.83;94683.06;5032319;28;20199;-74
2022/04/28 03:13:39;;;;;;;2.55;1.65;;;;;;;12.76;78.90;94682.59;5037932;28;20218;-77
2022/04/28 03:16:07;;;;;;;2.80;1.77;;;;;;;12.84;78.67;94688.28;5034310;28;20311;-77
2022/04/28 03:18:34;;;;;;;2.00;1.38;;;;;;;12.76;79.00;94692.69;5033938;28;20266;-77
2022/04/28 03:21:02;;;;;;;1.73;1.50;;;;;;;12.86;78.73;94691.44;5034059;28;20247;-77
2022/04/28 03:23:29;;;;;;;3.85;1.70;;;;;;;12.79;78.59;94687.38;5034141;28;20232;-76
2022/04/28 03:25:56;;;;;;;3.42;1.48;;;;;;;12.85;78.67;94696.06;5034481;28;20204;-76
2022/04/28 03:28:23;;;;;;;2.58;1.83;;;;;;;12.88;78.59;94700.03;5037025;28;20196;-77
2022/04/28 03:30:50;;;;;;;1.75;1.50;;;;;;;12.85;78.34;94706.19;5034109;28;20209;-78
2022/04/28 03:33:19;;;;;;;2.20;1.98;;;;;;;12.87;78.37;94712.06;5034139;28;20208;-77
2022/04/28 03:35:46;;;;;;;3.30;1.52;;;;;;;12.88;78.57;94716.34;5033628;28;20659;-74
2022/04/28 03:38:13;;;;;;;3.20;1.77;;;;;;;12.95;78.09;94727.47;5033961;28;20247;-76
2022/04/28 03:40:40;;;;;;;2.95;1.73;;;;;;;12.95;78.27;94732.91;5034102;28;20205;-75
2022/04/28 03:43:09;;;;;;;1.60;1.48;;;;;;;12.84;78.55;94732.56;5033327;28;20266;-76
2022/04/28 03:45:36;;;;;;;1.27;1.10;;;;;;;12.79;78.91;94741.75;5033357;28;20655;-76
2022/04/28 03:48:04;;;;;;;0.75;0.75;;;;;;;12.80;78.95;94737.88;5032000;28;20205;-79
2022/04/28 03:50:33;;;;;;;1.40;1.30;;;;;;;12.85;78.72;94738.81;5033141;28;20543;-75
2022/04/28 03:53:01;;;;;;;5.47;3.40;;;;;;;12.86;79.23;94745.81;5033083;28;20431;-78
2022/04/28 03:55:28;;;;;;;3.50;2.20;;;;;;;12.80;79.13;94748.75;5033293;28;20204;-77
2022/04/28 03:57:55;;;;;;;5.63;2.40;;;;;;;12.66;80.00;94742.84;5033497;28;20222;-74
2022/04/28 04:00:22;;;;;;;3.25;2.33;;;;;;;12.66;80.13;94748.28;5032895;28;20204;-76
2022/04/28 04:02:50;;;;;;;3.83;2.50;;;;;;;12.75;80.11;94746.25;5033294;28;20235;-74
2022/04/28 04:05:17;;;;;;;5.63;2.20;;;;;;;12.85;79.86;94752.41;5032750;28;20233;-76
2022/04/28 04:07:45;;;;;;;3.42;2.38;;;;;;;12.88;79.39;94746.25;5033164;28;20211;-75
2022/04/28 04:10:13;;;;;;;3.50;2.30;;;;;;;12.89;79.47;94750.56;5032926;28;20200;-74
2022/04/28 04:12:40;;;;;;;3.40;2.13;;;;;;;13.01;78.87;94751.38;5032960;28;20254;-76
2022/04/28 04:15:08;;;;;;;2.00;1.63;;;;;;;13.08;78.98;94753.53;5032885;28;20196;-74
2022/04/28 04:17:41;;;;;;;2.08;1.65;;;;;;;12.94;79.16;94758.50;5031583;28;20203;-75
2022/04/28 04:20:10;;;;;;;1.60;1.50;;;;;;;12.89;79.21;94753.28;5034139;28;20268;-74
2022/04/28 04:22:37;;;;;;;2.78;1.98;;;;;;;12.82;79.80;94757.38;5043052;28;20657;-77
2022/04/28 04:25:06;;;;;;;3.13;2.15;;;;;;;12.75;80.05;94757.13;5045029;28;20303;-73
2022/04/28 04:27:33;;;;;;;3.28;2.25;;;;;;;12.63;80.53;94756.31;5040297;28;20224;-75
2022/04/28 04:32:17;;;;;;;2.13;1.90;;;;;;;12.62;80.77;94766.41;5031441;28;20723;-75
2022/04/28 04:32:48;;;;;;;5.15;1.98;;;;;;;12.50;81.22;94766.38;5032221;28;20247;-75
2022/04/28 04:35:16;;;;;;;3.42;2.15;;;;;;;12.61;80.82;94756.66;5019069;28;20291;-75
2022/04/28 04:37:42;;;;;;;2.17;1.73;;;;;;;12.63;80.74;94769.91;5032670;28;20234;-76
2022/04/28 04:40:12;;;;;;;2.03;1.80;;;;;;;12.47;81.14;94764.31;5032478;28;20283;-75
2022/04/28 04:42:39;;;;;;;2.22;2.03;;;;;;;12.58;80.77;94773.63;5026568;28;20418;-74
2022/04/28 04:45:08;;;;;;;3.00;1.73;;;;;;;12.56;80.59;94775.91;5031523;28;20204;-75
2022/04/28 04:47:35;;;;;;;2.13;1.52;;;;;;;12.52;80.63;94772.25;5032045;28;20212;-75
2022/04/28 04:50:03;;;;;;;2.72;1.70;;;;;;;12.33;80.90;94772.75;5032133;28;20204;-75
2022/04/28 04:52:30;;;;;;;3.00;1.92;;;;;;;12.41;80.46;94781.97;5031290;28;20759;-74
2022/04/28 04:54:57;;;;;;;2.70;1.60;;;;;;;12.36;80.47;94776.75;5031687;28;20258;-75
2022/04/28 04:57:26;;;;;;;1.58;1.30;;;;;;;12.29;80.03;94787.38;5031058;28;20303;-76
2022/04/28 04:59:53;;;;;;;1.75;1.65;;;;;;;12.22;80.22;94787.09;5031031;28;20211;-73
2022/04/28 05:02:20;;;;;;;1.48;1.10;;;;;;;12.31;79.89;94790.53;5031312;28;20236;-76
2022/04/28 05:04:47;;;;;;;2.00;1.23;;;;;;;12.23;79.99;94791.41;5023710;28;20224;-81
2022/04/28 05:07:14;;;;;;;1.35;1.25;;;;;;;12.25;79.71;94800.03;5029214;28;20227;-76
2022/04/28 05:09:42;;;;;;;0.85;0.85;;;;;;;12.07;79.76;94800.16;5030663;28;20216;-75
2022/04/28 05:12:10;;;;;;;0.45;0.45;;;;;;;12.01;79.36;94792.56;5029126;28;20534;-78
2022/04/28 05:14:38;;;;;;;1.20;1.10;;;;;;;11.90;79.52;94803.00;5042035;28;20211;-78
2022/04/28 05:17:05;;;;;;;1.55;1.00;;;;;;;11.85;79.62;94811.38;5030913;28;20208;-77
2022/04/28 05:19:32;;;;;;;0.80;0.80;;;;;;;11.76;79.35;94807.91;5031232;28;20204;-74
2022/04/28 05:21:59;;;;;;;1.30;0.95;;;;;;;11.80;79.63;94808.84;5030671;28;20200;-78
2022/04/28 05:24:26;;;;;;;1.20;0.70;;;;;;;11.78;79.35;94821.94;5042060;28;20203;-80
2022/04/28 05:26:52;;;;;;;0.50;0.50;;;;;;;11.83;78.98;94821.75;5033952;28;20228;-79
2022/04/28 05:29:20;;;;;;;0.50;0.50;;;;;;;11.77;79.02;94819.56;5031688;28;20664;-74
2022/04/28 05:31:48;;;;;;;0.50;0.50;;;;;;;11.82;78.63;94825.59;5031279;28;20219;-76
2022/04/28 05:34:15;;;;;;;0.60;0.50;;;;;;;11.82;78.64;94822.88;5030954;28;20258;-75
2022/04/28 05:36:43;;;;;;;0.47;0.47;;;;;;;11.71;78.55;94822.44;5031138;28;20238;-70
2022/04/28 05:39:10;;;;;;;0.88;0.60;;;;;;;11.64;78.76;94827.59;5031354;28;20204;-77
2022/04/28 05:41:37;;;;;;;1.02;0.85;;;;;;;11.73;78.71;94824.84;5031084;28;20236;-77
2022/04/28 05:46:51;;;;;;;2.47;0.80;;;;;;;11.60;78.94;94836.75;5019439;28;20277;-74
2022/04/28 05:49:18;;;;;;;0.30;0.30;;;;;;;11.44;79.17;94843.84;5030170;28;20266;-77
2022/04/28 05:51:45;;;;;;;0.40;0.40;;;;;;;11.42;79.40;94835.25;5030886;28;20215;-75
2022/04/28 05:54:12;;;;;;;0.20;0.20;;;;;;;11.48;79.47;94844.78;5030668;28;20200;-76
2022/04/28 05:56:42;;;;;;;0.30;0.30;;;;;;;11.33;79.70;94849.66;5030436;28;20262;-73
2022/04/28 05:59:10;;;;;;;0.57;0.57;;;;;;;11.43;79.85;94853.09;5030672;28;20691;-77
2022/04/28 06:01:37;;;;;;;0.40;0.40;;;;;;;11.32;79.94;94858.91;5027998;28;20295;-75
2022/04/28 06:04:06;;;;;;;1.20;0.50;;;;;;;11.19;80.50;94859.91;5030985;28;20307;-78
2022/04/28 06:06:32;;;;;;;0.90;0.90;;;;;;;11.20;81.01;94866.94;5030829;28;20338;-77
2022/04/28 06:08:59;;;;;;;1.10;0.73;;;;;;;11.24;81.30;94864.34;5044169;28;20604;-77
2022/04/28 06:11:26;;;;;;;1.17;0.50;;;;;;;11.14;81.70;94868.22;5030348;28;20270;-77
2022/04/28 06:13:53;;;;;;;1.05;0.57;;;;;;;11.10;82.08;94856.44;5030677;28;20203;-71
2022/04/28 06:16:20;;;;;;;0.30;0.30;;;;;;;10.94;82.43;94863.50;5027881;28;20262;-79
2022/04/28 06:18:47;;;;;;;0.82;0.70;;;;;;;10.91;83.22;94864.97;5031097;28;20211;-81
2022/04/28 06:21:15;;;;;;;0.95;0.70;;;;;;;11.00;83.26;94856.78;5030192;28;20207;-76
2022/04/28 06:23:42;;;;;;;0.52;0.47;;;;;;;10.95;82.99;94867.78;5032032;28;20243;-79
2022/04/28 06:26:09;;;;;;;0.52;0.52;;;;;;;11.02;82.46;94862.69;5037861;28;20776;-73
2022/04/28 06:28:36;;;;;;;0.20;0.20;;;;;;;11.13;81.87;94866.63;5030815;28;20204;-77
2022/04/28 06:31:03;;;;;;;0.40;0.40;;;;;;;11.15;82.03;94869.81;5030818;28;20208;-73
2022/04/28 06:33:30;;;;;;;0.32;0.32;;;;;;;11.07;81.95;94862.50;5030796;28;20200;-74
2022/04/28 06:35:57;;;;;;;0.43;0.40;;;;;;;11.08;82.11;94874.94;5030595;28;20212;-75
2022/04/28 06:38:25;;;;;;;0.32;0.32;;;;;;;11.07;81.90;94878.00;5030124;28;20208;-75
2022/04/28 06:40:52;;;;;;;0.50;0.50;;;;;;;10.99;82.11;94871.47;5030312;28;20208;-84
2022/04/28 06:43:19;;;;;;;0.30;0.30;;;;;;;11.17;81.92;94878.44;5017404;28;20306;-75
2022/04/28 06:48:27;;;;;;;0.28;0.28;;;;;;;11.30;81.21;94872.00;5030938;28;20204;-75
2022/04/28 06:50:53;;;;;;;0.65;0.40;;;;;;;11.34;81.08;94872.91;5030329;28;20662;-74
2022/04/28 06:53:20;;;;;;;0.95;0.65;;;;;;;11.48;81.19;94882.78;5029573;28;20196;-78
2022/04/28 06:55:49;;;;;;;0.28;0.28;;;;;;;11.36;81.17;94881.53;5029152;28;20220;-77
2022/04/28 06:58:16;;;;;;;0.10;0.10;;;;;;;11.46;80.71;94879.59;5030455;28;20599;-78
2022/04/28 07:00:43;;;;;;;0.17;0.17;;;;;;;11.40;80.63;94871.63;5030414;28;20660;-79
2022/04/28 07:03:10;;;;;;;0.35;0.35;;;;;;;11.28;81.00;94885.06;5019947;28;20237;-77
2022/04/28 07:05:38;;;;;;;0.30;0.30;;;;;;;11.32;80.87;94886.03;5025918;28;20628;-73
2022/04/28 07:08:06;;;;;;;0.45;0.45;;;;;;;11.35;81.27;94885.34;5029337;28;20645;-74
2022/04/28 07:10:33;;;;;;;1.08;0.50;;;;;;;11.35;81.38;94890.78;5029477;28;20204;-80
2022/04/28 07:13:02;;;;;;;0.30;0.30;;;;;;;11.31;81.57;94894.50;5030380;28;20205;-77
2022/04/28 07:15:28;;;;;;;0.20;0.20;;;;;;;11.35;82.00;94889.97;5034175;28;20200;-77
2022/04/28 07:17:55;;;;;;;0.50;0.50;;;;;;;11.23;82.11;94893.38;5038945;28;20212;-71
2022/04/28 07:20:22;;;;;;;0.30;0.30;;;;;;;11.45;81.45;94888.84;5029595;28;20601;-76
2022/04/28 07:22:49;;;;;;;0.50;0.50;;;;;;;11.40;81.52;94887.91;5029409;28;20251;-78
2022/04/28 07:25:16;;;;;;;2.10;0.43;;;;;;;11.42;81.47;94889.50;5041531;28;20714;-74
2022/04/28 07:27:43;;;;;;;0.20;0.20;;;;;;;11.52;80.99;94894.53;5033214;28;20510;-75
2022/04/28 07:30:12;;;;;;;0.57;0.40;;;;;;;11.30;81.60;94893.69;5033931;28;20231;-75
2022/04/28 07:32:40;;;;;;;0.28;0.28;;;;;;;11.50;81.45;94897.56;5033454;28;20196;-78
2022/04/28 07:35:07;;;;;;;0.30;0.30;;;;;;;11.46;81.61;94896.66;5033431;28;20204;-78
2022/04/28 07:37:34;;;;;;;0.85;0.65;;;;;;;11.57;81.10;94897.06;5033182;28;20210;-78
2022/04/28 07:40:01;;;;;;;0.50;0.50;;;;;;;11.68;80.57;94903.72;5033129;28;20343;-78
2022/04/28 07:42:27;;;;;;;2.38;0.60;;;;;;;11.90;79.31;94895.31;5033207;28;20215;-74
2022/04/28 07:44:54;;;;;;;0.88;0.43;;;;;;;11.93;78.79;94888.44;5033268;28;20346;-75
2022/04/28 07:47:23;;;;;;;0.40;0.40;;;;;;;12.09;78.95;94882.09;5029276;28;20204;-76
2022/04/28 07:49:49;;;;;;;0.40;0.40;;;;;;;12.00;78.37;94894.94;5013371;28;20197;-77
2022/04/28 07:52:16;;;;;;;0.65;0.65;;;;;;;11.90;78.90;94900.75;5026569;28;20655;-77
2022/04/28 07:54:43;;;;;;;1.05;0.50;;;;;;;11.77;79.18;94901.78;5032221;28;20282;-77
2022/04/28 07:57:10;;;;;;;1.77;0.60;;;;;;;12.04;79.00;94900.50;5033083;28;20200;-77
2022/04/28 07:59:37;;;;;;;0.60;0.60;;;;;;;12.15;78.49;94911.78;5032354;28;20655;-76
2022/04/28 08:02:05;;;;;;;0.40;0.40;;;;;;;11.94;78.45;94909.81;5032364;28;20215;-78
2022/04/28 08:04:33;;;;;;;0.63;0.63;;;;;;;11.91;78.72;94907.75;5020370;28;20236;-77
2022/04/28 08:07:00;;;;;;;1.15;0.60;;;;;;;12.14;78.03;94910.19;5046060;28;20223;-77
2022/04/28 08:09:27;;;;;;;0.75;0.57;;;;;;;12.29;77.30;94912.31;5031832;28;20196;-78
2022/04/28 08:11:54;;;;;;;0.40;0.40;;;;;;;12.36;76.90;94915.28;5032598;28;20208;-75
2022/04/28 08:14:23;;;;;;;0.28;0.28;;;;;;;12.17;77.11;94904.88;5032929;28;20540;-73
2022/04/28 08:16:50;;;;;;;0.40;0.40;;;;;;;12.09;77.93;94911.16;5032585;28;20262;-76
2022/04/28 08:19:17;;;;;;;2.03;0.63;;;;;;;12.01;77.77;94912.84;5032273;28;20211;-77
2022/04/28 08:21:46;;;;;;;0.63;0.40;;;;;;;11.76;78.49;94916.47;5032201;28;20583;-74
2022/04/28 08:24:13;;;;;;;0.20;0.20;;;;;;;11.86;78.75;94916.13;5034115;28;20251;-75
2022/04/28 08:26:40;;;;;;;0.85;0.70;;;;;;;11.90;78.70;94922.44;5031917;28;20216;-79
2022/04/28 08:29:09;;;;;;;1.75;0.32;;;;;;;11.82;78.94;94923.31;5031751;28;20200;-81
2022/04/28 08:31:43;;;;;;;0.32;0.32;;;;;;;12.13;78.67;94928.41;5032350;28;20270;-79
2022/04/28 08:34:10;;;;;;;1.17;0.50;;;;;;;12.21;77.53;94921.31;5031531;28;20197;-80
2022/04/28 08:36:37;;;;;;;3.30;0.60;;;;;;;12.47;76.97;94930.06;5032184;28;20283;-74
2022/04/28 08:39:06;;;;;;;1.48;0.88;;;;;;;12.40;76.93;94919.75;5031060;28;20254;-82
2022/04/28 08:41:35;;;;;;;0.35;0.30;;;;;;;12.30;77.31;94920.13;5032055;28;20216;-78
2022/04/28 08:44:03;;;;;;;0.43;0.30;;;;;;;12.14;77.62;94921.84;5031914;28;20235;-77
2022/04/28 08:49:15;;;;;;;0.50;0.50;;;;;;;12.41;77.42;94926.75;5031723;28;20733;-76
2022/04/28 08:51:43;;;;;;;0.25;0.25;;;;;;;12.44;76.87;94925.28;5032367;28;20223;-73
2022/04/28 08:54:13;;;;;;;1.75;0.70;;;;;;;12.71;76.63;94927.44;5031647;28;20205;-80
2022/04/28 08:56:40;;;;;;;0.93;0.80;;;;;;;12.70;76.60;94931.31;5031720;28;20205;-77
2022/04/28 08:59:07;;;;;;;0.52;0.47;;;;;;;12.86;76.14;94930.69;5032059;28;20204;-77
2022/04/28 09:01:34;;;;;;;0.95;0.70;;;;;;;12.99;75.68;94918.72;5042291;28;20303;-78
2022/04/28 09:04:04;;;;;;;0.82;0.65;;;;;;;13.12;74.92;94925.78;5032928;28;20236;-78
2022/04/28 09:06:34;;;;;;;0.40;0.40;;;;;;;13.04;74.84;94922.03;5032112;28;20216;-78
2022/04/28 09:09:04;;;;;;;0.77;0.50;;;;;;;13.29;73.97;94922.91;5031402;28;20283;-78
2022/04/28 09:11:35;;;;;;;0.90;0.90;;;;;;;13.51;73.62;94922.50;5031355;28;20287;-79
2022/04/28 09:14:12;;;;;;;0.63;0.55;;;;;;;13.39;73.85;94924.44;5030821;28;20201;-78
2022/04/28 09:16:42;;;;;;;0.93;0.52;;;;;;;13.35;74.01;94923.50;5030831;28;20200;-80
2022/04/28 09:19:10;;;;;;;1.10;1.00;;;;;;;13.47;73.69;94918.88;5031893;28;20299;-78
2022/04/28 09:21:37;;;;;;;8.13;3.72;;;;;;;13.63;73.07;94921.72;5031604;28;20224;-78
2022/04/28 09:24:05;;;;;;;0.60;0.60;;;;;;;13.16;73.99;94922.09;5035780;28;20230;-77
2022/04/28 09:26:34;;;;;;;0.88;0.80;;;;;;;13.36;73.15;94934.06;5035414;28;20220;-77
2022/04/28 09:29:03;;;;;;;1.42;0.80;;;;;;;13.22;73.53;94930.06;5030283;28;20667;-74
2022/04/28 09:31:31;;;;;;;0.60;0.47;;;;;;;13.57;73.21;94922.28;5027535;28;20692;-76
2022/04/28 09:34:05;;;;;;;0.60;0.60;;;;;;;13.74;72.08;94927.50;5031186;28;20204;-75
2022/04/28 09:36:32;;;;;;;1.23;1.05;;;;;;;13.53;72.89;94922.94;5031482;28;20196;-75
2022/04/28 09:38:59;;;;;;;1.08;0.80;;;;;;;13.98;71.80;94921.25;5030624;28;20575;-76
2022/04/28 09:44:12;;;;;;;0.65;0.40;;;;;;;14.44;69.79;94917.25;5030954;28;20323;-75
2022/04/28 09:46:42;;;;;;;4.22;0.93;;;;;;;14.12;70.83;94917.03;5017814;28;20261;-75
2022/04/28 09:49:10;;;;;;;1.25;0.90;;;;;;;14.18;70.49;94915.69;5031176;28;20228;-74
2022/04/28 09:51:38;;;;;;;1.48;1.30;;;;;;;13.93;70.92;94919.56;5031025;28;20201;-75
2022/04/28 09:54:09;;;;;;;1.58;1.30;;;;;;;13.94;70.43;94925.81;5030619;28;20208;-77
2022/04/28 09:56:37;;;;;;;1.20;1.10;;;;;;;13.78;70.87;94923.78;5030706;28;20228;-75
2022/04/28 09:59:06;;;;;;;1.38;0.80;;;;;;;14.06;70.65;94918.44;5030255;28;20563;-81
2022/04/28 10:01:34;;;;;;;0.30;0.30;;;;;;;13.94;69.56;94921.13;5028441;28;20197;-79
2022/04/28 10:04:01;;;;;;;0.50;0.50;;;;;;;14.11;70.05;94920.91;5015879;28;20310;-79
2022/04/28 10:06:34;;;;;;;2.38;1.92;;;;;;;14.32;69.19;94919.97;5029470;28;20196;-77
2022/04/28 10:09:05;;;;;;;1.45;0.85;;;;;;;14.56;68.05;94919.94;5040872;28;20204;-78
2022/04/28 10:11:33;;;;;;;0.40;0.40;;;;;;;14.57;67.67;94911.41;5025375;28;20713;-78
2022/04/28 10:14:01;;;;;;;2.53;0.65;;;;;;;14.13;68.80;94913.19;5029495;28;20258;-79
2022/04/28 10:16:28;;;;;;;2.60;1.00;;;;;;;14.58;68.41;94917.66;5029801;28;20294;-78
2022/04/28 10:19:02;;;;;;;6.70;1.02;;;;;;;14.82;67.75;94906.66;5029816;28;20230;-79
2022/04/28 10:21:35;;;;;;;0.75;0.75;;;;;;;15.21;65.83;94906.94;5029525;28;20251;-79
2022/04/28 10:32:54;;;;;;;0.88;0.80;;;;;;;14.58;67.05;94914.94;5018891;28;20212;-78
2022/04/28 10:35:38;;;;;;;0.70;0.70;;;;;;;15.02;66.03;94912.28;5016409;28;20203;-79
2022/04/28 10:38:08;;;;;;;1.05;0.60;;;;;;;15.13;64.85;94905.16;5029505;28;20281;-79
2022/04/28 10:40:38;;;;;;;1.33;1.15;;;;;;;14.97;65.67;94899.66;5029884;28;20291;-81
2022/04/28 10:43:05;;;;;;;1.13;0.82;;;;;;;15.25;65.80;94908.63;5029514;28;20264;-79
2022/04/28 10:45:40;;;;;;;1.00;0.75;;;;;;;15.30;65.59;94904.84;5029009;28;20335;-79
2022/04/28 10:48:31;;;;;;;2.17;1.00;;;;;;;15.68;64.29;94903.47;5029646;28;20242;-78
2022/04/28 10:51:16;;;;;;;1.95;0.95;;;;;;;14.90;65.44;94902.97;5029448;28;20204;-74
2022/04/28 10:54:09;;;;;;;1.70;1.15;;;;;;;15.01;65.69;94907.97;5029424;28;20246;-81
2022/04/28 10:57:01;;;;;;;1.17;1.08;;;;;;;14.65;66.13;94906.94;5018230;28;20593;-79
2022/04/28 10:59:35;;;;;;;4.07;0.82;;;;;;;14.59;65.84;94908.34;5030448;28;20326;-74
2022/04/28 11:02:50;;;;;;;1.77;0.88;;;;;;;14.23;67.60;94895.56;5033174;28;20303;-77
2022/04/28 11:05:47;;;;;;;3.65;1.92;;;;;;;14.28;67.03;94903.50;5032858;28;20267;-78
2022/04/28 11:08:35;;;;;;;4.75;1.70;;;;;;;14.26;67.33;94896.81;5033240;28;20196;-75
2022/04/28 11:11:11;;;;;;;2.60;1.50;;;;;;;14.76;66.82;94890.91;5020829;28;20722;-79
2022/04/28 11:13:40;;;;;;;0.70;0.60;;;;;;;15.18;65.61;94891.25;5032722;28;20206;-81
2022/04/28 11:16:09;;;;;;;3.72;2.03;;;;;;;15.58;64.15;94888.44;5032500;28;20208;-80
2022/04/28 11:18:36;;;;;;;0.70;0.60;;;;;;;15.81;63.32;94897.56;5033139;28;20307;-80
2022/04/28 11:21:04;;;;;;;5.78;2.28;;;;;;;15.87;62.60;94895.34;5032909;28;20224;-80
2022/04/28 11:23:37;;;;;;;1.45;1.33;;;;;;;15.52;62.85;94890.59;5032585;28;20262;-77
2022/04/28 11:26:04;;;;;;;1.15;1.05;;;;;;;15.72;63.29;94896.16;5052822;28;20235;-79
2022/04/28 11:28:32;;;;;;;2.45;1.08;;;;;;;16.08;61.67;94889.59;5034599;28;20200;-80
2022/04/28 11:30:59;;;;;;;1.05;0.93;;;;;;;16.34;61.58;94887.84;5031971;28;20671;-79
2022/04/28 11:33:26;;;;;;;2.20;1.10;;;;;;;16.29;61.28;94879.91;5032520;28;20658;-79
2022/04/28 11:35:54;;;;;;;1.30;1.15;;;;;;;16.48;60.84;94881.09;5032418;28;20326;-79
2022/04/28 11:38:29;;;;;;;1.33;1.23;;;;;;;16.48;60.49;94886.56;5032365;28;20662;-76
2022/04/28 11:41:03;;;;;;;2.03;1.50;;;;;;;15.66;62.32;94894.84;5032371;28;20192;-80
2022/04/28 11:43:31;;;;;;;4.43;2.45;;;;;;;15.48;63.51;94883.44;5013082;28;20233;-76
2022/04/28 11:45:59;;;;;;;4.10;2.30;;;;;;;15.40;63.53;94890.66;5026953;28;20238;-80
2022/04/28 11:48:28;;;;;;;2.08;1.80;;;;;;;15.79;63.05;94885.41;5032262;28;20219;-78
2022/04/28 11:51:01;;;;;;;3.40;2.10;;;;;;;15.71;62.77;94880.94;5032161;28;20204;-79
2022/04/28 11:53:39;;;;;;;3.83;2.33;;;;;;;15.83;62.62;94872.63;5032255;28;20330;-78
2022/04/28 11:56:16;;;;;;;5.20;2.25;;;;;;;16.27;61.28;94876.75;5031896;28;20200;-78
2022/04/28 11:58:43;;;;;;;3.22;2.47;;;;;;;15.62;62.49;94881.09;5032633;28;20200;-82
2022/04/28 12:01:12;;;;;;;3.15;2.45;;;;;;;15.87;61.64;94878.94;5031658;28;20235;-75
2022/04/28 12:03:38;;;;;;;5.03;2.50;;;;;;;16.26;61.31;94875.16;5032745;28;20200;-77
2022/04/28 12:06:07;;;;;;;4.72;2.85;;;;;;;16.26;61.09;94875.16;5032237;28;20231;-80
2022/04/28 12:08:34;;;;;;;4.75;3.20;;;;;;;16.13;60.92;94870.97;5031361;28;20515;-78
2022/04/28 12:19:24;;;;;;;3.38;2.50;;;;;;;15.84;62.29;94868.75;5020261;28;20226;-79
2022/04/28 12:21:51;;;;;;;5.70;3.20;;;;;;;15.54;62.08;94871.91;5032073;28;20255;-79